createdAt,value
2022-08-24T00:00:25.935Z,21.75
2022-08-24T00:02:54.585Z,21.77
2022-08-24T00:05:21.471Z,22.50
2022-08-24T00:07:49.833Z,22.23
2022-08-24T00:10:18.623Z,23.48
2022-08-24T00:12:45.353Z,22.85
2022-08-24T00:15:14.173Z,23.88
2022-08-24T00:17:41.073Z,22.08
2022-08-24T00:20:09.956Z,22.00
2022-08-24T00:22:37.706Z,22.42
2022-08-24T00:25:05.353Z,22.70
2022-08-24T00:27:32.186Z,22.33
2022-08-24T00:29:59.002Z,22.17
2022-08-24T00:32:26.028Z,22.95
2022-08-24T00:34:58.917Z,22.63
2022-08-24T00:37:28.457Z,22.10
2022-08-24T00:39:55.859Z,22.10
2022-08-24T00:42:23.163Z,22.23
2022-08-24T00:44:49.863Z,22.27
2022-08-24T00:47:24.627Z,21.65
2022-08-24T00:50:05.289Z,22.52
2022-08-24T00:52:40.005Z,22.75
2022-08-24T00:57:41.399Z,21.88
2022-08-24T01:00:32.046Z,22.17
2022-08-24T01:03:04.455Z,21.95
2022-08-24T01:05:33.397Z,22.40
2022-08-24T01:08:01.971Z,22.15
2022-08-24T01:10:33.271Z,22.50
2022-08-24T01:13:03.718Z,22.27
2022-08-24T01:15:35.144Z,22.92
2022-08-24T01:18:22.082Z,23.65
2022-08-24T01:21:01.666Z,23.23
2022-08-24T01:23:41.480Z,23.35
2022-08-24T01:26:15.077Z,23.20
2022-08-24T01:28:45.546Z,22.77
2022-08-24T01:31:12.571Z,23.35
2022-08-24T01:33:39.661Z,23.92
2022-08-24T01:36:28.551Z,24.10
2022-08-24T01:38:58.280Z,24.52
2022-08-24T01:41:28.932Z,23.13
2022-08-24T01:43:58.028Z,23.58
2022-08-24T01:46:25.027Z,23.95
2022-08-24T01:48:51.746Z,23.83
2022-08-24T01:51:18.589Z,23.65
2022-08-24T01:53:45.300Z,23.75
2022-08-24T01:56:12.293Z,23.60
2022-08-24T01:58:45.638Z,23.63
2022-08-24T02:01:13.268Z,23.70
2022-08-24T02:03:40.069Z,23.90
2022-08-24T02:06:07.087Z,24.73
2022-08-24T02:08:36.008Z,23.42
2022-08-24T02:11:06.920Z,22.90
2022-08-24T02:13:35.428Z,22.63
2022-08-24T02:16:02.349Z,22.85
2022-08-24T02:18:33.568Z,22.67
2022-08-24T02:21:01.347Z,22.92
2022-08-24T02:23:29.250Z,22.40
2022-08-24T02:25:56.481Z,21.85
2022-08-24T02:28:23.513Z,22.40
2022-08-24T02:30:50.966Z,21.80
2022-08-24T02:33:17.943Z,23.58
2022-08-24T02:35:44.862Z,23.13
2022-08-24T02:38:11.529Z,22.00
2022-08-24T02:40:39.194Z,22.70
2022-08-24T02:43:06.028Z,22.83
2022-08-24T02:45:38.330Z,23.08
2022-08-24T02:48:05.504Z,23.58
2022-08-24T02:50:32.233Z,23.48
2022-08-24T02:52:59.569Z,23.08
2022-08-24T02:55:26.701Z,22.70
2022-08-24T02:57:54.029Z,22.98
2022-08-24T03:00:22.538Z,22.90
2022-08-24T03:02:53.635Z,22.10
2022-08-24T03:05:22.149Z,22.83
2022-08-24T03:07:49.398Z,22.52
2022-08-24T03:10:20.638Z,23.63
2022-08-24T03:12:47.934Z,21.90
2022-08-24T03:15:14.995Z,22.08
2022-08-24T03:17:43.020Z,22.65
2022-08-24T03:20:14.170Z,22.45
2022-08-24T03:22:42.226Z,22.05
2022-08-24T03:25:11.104Z,23.10
2022-08-24T03:27:38.471Z,22.58
2022-08-24T03:30:08.693Z,22.85
2022-08-24T03:32:35.429Z,22.77
2022-08-24T03:35:04.277Z,22.63
2022-08-24T03:37:32.757Z,23.08
2022-08-24T03:40:00.269Z,22.20
2022-08-24T03:42:27.187Z,23.15
2022-08-24T03:44:53.927Z,22.40
2022-08-24T03:47:22.631Z,23.17
2022-08-24T03:49:50.127Z,22.55
2022-08-24T03:52:17.171Z,23.45
2022-08-24T03:54:44.875Z,22.98
2022-08-24T03:57:12.186Z,23.88
2022-08-24T03:59:46.378Z,23.73
2022-08-24T04:02:14.125Z,23.75
2022-08-24T04:04:41.721Z,22.52
2022-08-24T04:07:10.245Z,23.45
2022-08-24T04:09:37.715Z,23.58
2022-08-24T04:12:05.153Z,23.73
2022-08-24T04:14:32.455Z,23.23
2022-08-24T04:17:04.949Z,24.33
2022-08-24T04:19:36.717Z,24.60
2022-08-24T04:22:03.913Z,23.48
2022-08-24T04:24:31.133Z,23.67
2022-08-24T04:26:57.941Z,25.33
2022-08-24T04:29:26.021Z,23.27
2022-08-24T04:31:54.624Z,23.73
2022-08-24T04:34:22.590Z,22.08
2022-08-24T04:36:50.301Z,23.75
2022-08-24T04:39:18.088Z,25.60
2022-08-24T04:41:59.951Z,25.50
2022-08-24T04:44:32.267Z,26.30
2022-08-24T04:47:01.282Z,25.30
2022-08-24T04:49:28.064Z,24.95
2022-08-24T04:51:56.023Z,25.88
2022-08-24T04:54:22.900Z,25.83
2022-08-24T04:57:01.647Z,25.20
2022-08-24T04:59:28.348Z,26.50
2022-08-24T05:01:55.298Z,25.55
2022-08-24T05:04:22.058Z,24.88
2022-08-24T05:06:48.738Z,26.15
2022-08-24T05:09:21.960Z,26.23
2022-08-24T05:11:49.926Z,25.70
2022-08-24T05:14:23.691Z,25.17
2022-08-24T05:16:53.914Z,25.45
2022-08-24T05:19:23.070Z,25.48
2022-08-24T05:21:50.086Z,25.10
2022-08-24T05:24:17.397Z,25.55
2022-08-24T05:26:44.142Z,25.52
2022-08-24T05:29:11.535Z,25.92
2022-08-24T05:31:45.880Z,25.35
2022-08-24T05:34:13.884Z,25.88
2022-08-24T05:36:42.459Z,25.98
2022-08-24T05:39:15.729Z,25.13
2022-08-24T05:41:50.601Z,25.48
2022-08-24T05:44:26.855Z,25.73
2022-08-24T05:46:58.114Z,23.98
2022-08-24T05:49:25.906Z,23.77
2022-08-24T05:51:52.956Z,25.20
2022-08-24T05:54:20.106Z,25.08
2022-08-24T05:56:55.336Z,24.08
2022-08-24T05:59:23.411Z,25.17
2022-08-24T06:01:51.276Z,25.45
2022-08-24T06:04:18.294Z,25.58
2022-08-24T06:06:45.181Z,25.50
2022-08-24T06:09:16.685Z,25.50
2022-08-24T06:11:46.771Z,24.45
2022-08-24T06:14:17.339Z,24.45
2022-08-24T06:16:55.434Z,25.30
2022-08-24T06:19:23.358Z,25.15
2022-08-24T06:21:52.086Z,24.77
2022-08-24T06:24:40.384Z,24.92
2022-08-24T06:27:22.424Z,24.95
2022-08-24T06:30:04.500Z,24.88
2022-08-24T06:32:49.323Z,25.05
2022-08-24T06:35:28.476Z,24.52
2022-08-24T06:37:56.494Z,24.52
2022-08-24T06:40:25.826Z,24.13
2022-08-24T06:42:53.466Z,25.10
2022-08-24T06:45:37.844Z,25.20
2022-08-24T06:48:05.482Z,25.40
2022-08-24T06:50:33.287Z,25.25
2022-08-24T06:53:01.398Z,25.40
2022-08-24T06:55:29.886Z,24.73
2022-08-24T06:57:57.070Z,24.80
2022-08-24T07:00:25.102Z,25.10
2022-08-24T07:02:52.157Z,25.02
2022-08-24T07:05:19.161Z,24.90
2022-08-24T07:08:07.187Z,24.58
2022-08-24T07:10:34.891Z,25.73
2022-08-24T07:13:01.645Z,25.70
2022-08-24T07:15:28.491Z,25.58
2022-08-24T07:18:10.029Z,25.88
2022-08-24T07:20:41.598Z,26.08
2022-08-24T07:23:17.035Z,25.75
2022-08-24T07:25:49.760Z,27.80
2022-08-24T07:28:27.733Z,27.13
2022-08-24T07:30:58.952Z,27.30
2022-08-24T07:33:27.005Z,27.25
2022-08-24T07:35:55.132Z,28.08
2022-08-24T07:38:23.144Z,26.90
2022-08-24T07:41:14.323Z,27.85
2022-08-24T07:43:36.783Z,28.75
2022-08-24T07:46:08.633Z,29.20
2022-08-24T07:48:36.550Z,28.23
2022-08-24T07:51:11.606Z,29.05
2022-08-24T07:53:53.080Z,29.48
2022-08-24T07:56:22.706Z,30.25
2022-08-24T07:58:49.967Z,28.88
2022-08-24T08:01:22.297Z,27.88
2022-08-24T08:03:50.260Z,27.27
2022-08-24T08:06:19.038Z,29.40
2022-08-24T08:08:47.684Z,28.38
2022-08-24T08:11:14.576Z,28.92
2022-08-24T08:16:09.695Z,29.73
2022-08-24T08:18:36.476Z,29.50
2022-08-24T08:21:28.505Z,28.83
2022-08-24T08:24:14.576Z,28.90
2022-08-24T08:26:47.718Z,29.92
2022-08-24T08:29:32.917Z,30.02
2022-08-24T08:32:00.631Z,30.42
2022-08-24T08:34:29.962Z,29.88
2022-08-24T08:36:57.732Z,31.58
2022-08-24T08:39:25.857Z,30.35
2022-08-24T08:42:27.690Z,30.38
2022-08-24T08:45:15.302Z,29.15
2022-08-24T08:48:17.112Z,30.55
2022-08-24T08:51:12.028Z,31.08
2022-08-24T08:54:01.258Z,30.48
2022-08-24T08:57:04.142Z,30.83
2022-08-24T08:59:57.300Z,30.77
2022-08-24T09:02:38.556Z,30.35
2022-08-24T09:05:35.214Z,30.85
2022-08-24T09:08:05.067Z,29.70
2022-08-24T09:10:56.236Z,31.80
2022-08-24T09:13:43.295Z,31.90
2022-08-24T09:16:39.047Z,31.90
2022-08-24T09:19:31.809Z,32.30
2022-08-24T09:22:05.235Z,32.05
2022-08-24T09:24:50.091Z,32.55
2022-08-24T09:27:57.475Z,34.22
2022-08-24T09:30:35.888Z,32.30
2022-08-24T09:33:20.958Z,30.83
2022-08-24T09:35:51.833Z,31.50
2022-08-24T09:38:46.725Z,32.28
2022-08-24T09:41:31.977Z,31.58
2022-08-24T09:44:07.552Z,31.73
2022-08-24T09:46:58.180Z,31.15
2022-08-24T09:49:43.078Z,31.55
2022-08-24T09:55:08.267Z,33.28
2022-08-24T09:58:12.616Z,31.80
2022-08-24T10:00:47.427Z,34.85
2022-08-24T10:03:33.932Z,34.30
2022-08-24T10:06:18.443Z,33.03
2022-08-24T10:09:25.808Z,34.85
2022-08-24T10:12:21.829Z,32.97
2022-08-24T10:14:54.600Z,33.03
2022-08-24T10:17:33.471Z,32.70
2022-08-24T10:20:16.403Z,32.13
2022-08-24T10:23:01.840Z,33.78
2022-08-24T10:25:57.493Z,33.05
2022-08-24T10:28:36.187Z,33.67
2022-08-24T10:31:12.852Z,33.35
2022-08-24T10:34:13.906Z,32.03
2022-08-24T10:36:58.995Z,32.38
2022-08-24T10:39:52.934Z,31.95
2022-08-24T10:43:12.229Z,32.22
2022-08-24T10:46:00.670Z,33.25
2022-08-24T10:48:33.246Z,33.05
2022-08-24T10:51:22.388Z,33.88
2022-08-24T10:53:52.167Z,34.42
2022-08-24T10:56:35.945Z,32.95
2022-08-24T10:59:11.837Z,32.70
2022-08-24T11:01:39.462Z,33.42
2022-08-24T11:04:08.612Z,34.15
2022-08-24T11:06:41.426Z,32.83
2022-08-24T11:09:18.696Z,32.35
2022-08-24T11:11:49.489Z,33.55
2022-08-24T11:14:16.123Z,32.70
2022-08-24T11:16:46.441Z,34.05
2022-08-24T11:19:31.102Z,32.55
2022-08-24T11:22:21.385Z,33.25
2022-08-24T11:24:52.322Z,32.42
2022-08-24T11:27:39.747Z,32.42
2022-08-24T11:30:18.902Z,31.88
2022-08-24T11:32:47.759Z,32.90
2022-08-24T11:35:33.188Z,32.72
2022-08-24T11:38:16.482Z,32.95
2022-08-24T11:40:55.624Z,31.67
2022-08-24T11:43:43.597Z,33.70
2022-08-24T11:46:40.051Z,33.13
2022-08-24T11:49:14.839Z,32.10
2022-08-24T11:52:04.934Z,32.17
2022-08-24T11:54:56.979Z,31.42
2022-08-24T11:57:51.790Z,32.22
2022-08-24T12:00:22.777Z,32.15
2022-08-24T12:03:00.288Z,32.08
2022-08-24T12:05:49.712Z,31.67
2022-08-24T12:08:21.452Z,31.83
2022-08-24T12:11:33.249Z,32.65
2022-08-24T12:14:35.938Z,33.15
2022-08-24T12:17:25.948Z,32.53
2022-08-24T12:20:00.372Z,33.22
2022-08-24T12:22:29.194Z,32.70
2022-08-24T12:24:59.475Z,34.08
2022-08-24T12:27:32.078Z,34.45
2022-08-24T12:30:07.521Z,33.38
2022-08-24T12:32:48.703Z,35.67
2022-08-24T12:35:31.715Z,34.72
2022-08-24T12:38:14.643Z,35.10
2022-08-24T12:40:53.681Z,33.20
2022-08-24T12:43:25.580Z,35.33
2022-08-24T12:45:56.064Z,34.25
2022-08-24T12:48:33.109Z,35.63
2022-08-24T12:51:44.834Z,35.03
2022-08-24T12:54:17.838Z,35.47
2022-08-24T12:57:03.126Z,35.28
2022-08-24T12:59:36.649Z,35.70
2022-08-24T13:02:11.375Z,34.10
2022-08-24T13:04:57.215Z,34.22
2022-08-24T13:07:23.952Z,34.50
2022-08-24T13:09:56.685Z,35.05
2022-08-24T13:12:30.593Z,33.97
2022-08-24T13:15:25.889Z,34.17
2022-08-24T13:18:09.991Z,32.47
2022-08-24T13:20:37.063Z,35.05
2022-08-24T13:23:18.867Z,34.72
2022-08-24T13:25:51.423Z,35.28
2022-08-24T13:28:21.352Z,33.40
2022-08-24T13:30:57.044Z,35.08
2022-08-24T13:33:35.881Z,34.33
2022-08-24T13:36:17.757Z,34.47
2022-08-24T13:38:55.762Z,34.70
2022-08-24T13:41:46.193Z,35.33
2022-08-24T13:44:28.862Z,34.85
2022-08-24T13:47:16.747Z,35.85
2022-08-24T13:50:07.643Z,36.72
2022-08-24T13:52:56.954Z,34.90
2022-08-24T13:55:48.772Z,35.92
2022-08-24T13:58:47.865Z,35.42
2022-08-24T14:01:32.941Z,34.88
2022-08-24T14:06:38.133Z,34.90
2022-08-24T14:09:37.551Z,35.45
2022-08-24T14:12:30.261Z,35.88
2022-08-24T14:15:20.946Z,34.97
2022-08-24T14:17:55.930Z,35.13
2022-08-24T14:21:18.119Z,36.78
2022-08-24T14:23:55.540Z,36.53
2022-08-24T14:26:43.321Z,34.97
2022-08-24T14:29:15.835Z,36.00
2022-08-24T14:32:12.612Z,34.10
2022-08-24T14:34:45.659Z,33.85
2022-08-24T14:37:18.267Z,33.25
2022-08-24T14:40:13.367Z,33.67
2022-08-24T14:42:57.547Z,36.75
2022-08-24T14:45:59.566Z,33.10
2022-08-24T14:48:46.162Z,34.45
2022-08-24T14:51:58.757Z,32.63
2022-08-24T14:54:37.045Z,32.30
2022-08-24T14:57:17.336Z,32.13
2022-08-24T15:00:14.579Z,31.42
2022-08-24T15:03:12.104Z,33.53
2022-08-24T15:06:25.776Z,31.45
2022-08-24T15:08:53.104Z,32.47
2022-08-24T15:11:29.358Z,31.40
2022-08-24T15:14:04.830Z,31.52
2022-08-24T15:16:53.744Z,31.60
2022-08-24T15:19:45.348Z,31.70
2022-08-24T15:22:40.817Z,30.70
2022-08-24T15:25:19.236Z,31.40
2022-08-24T15:27:55.666Z,32.72
2022-08-24T15:30:34.317Z,31.90
2022-08-24T15:33:18.451Z,32.10
2022-08-24T15:36:14.275Z,34.78
2022-08-24T15:38:42.606Z,32.58
2022-08-24T15:41:18.238Z,32.67
2022-08-24T15:43:51.900Z,32.33
2022-08-24T15:46:23.376Z,32.38
2022-08-24T15:48:50.951Z,32.15
2022-08-24T15:51:53.131Z,33.65
2022-08-24T15:54:24.736Z,33.72
2022-08-24T15:57:02.799Z,34.25
2022-08-24T15:59:47.515Z,34.35
2022-08-24T16:02:28.718Z,33.28
2022-08-24T16:05:14.527Z,32.78
2022-08-24T16:08:03.844Z,30.88
2022-08-24T16:10:35.362Z,32.45
2022-08-24T16:13:19.432Z,32.28
2022-08-24T16:15:52.487Z,33.80
2022-08-24T16:18:20.325Z,34.88
2022-08-24T16:20:48.876Z,34.25
2022-08-24T16:23:27.342Z,32.97
2022-08-24T16:26:21.134Z,33.17
2022-08-24T16:28:48.662Z,33.47
2022-08-24T16:31:40.964Z,33.65
2022-08-24T16:34:19.677Z,31.75
2022-08-24T16:36:48.164Z,32.55
2022-08-24T16:39:15.307Z,32.92
2022-08-24T16:41:42.886Z,32.75
2022-08-24T16:44:10.630Z,34.97
2022-08-24T16:46:38.246Z,33.85
2022-08-24T16:49:05.181Z,33.95
2022-08-24T16:51:45.113Z,32.45
2022-08-24T16:54:12.757Z,33.30
2022-08-24T16:56:39.939Z,33.45
2022-08-24T16:59:06.864Z,34.22
2022-08-24T17:01:33.622Z,34.83
2022-08-24T17:04:00.353Z,35.80
2022-08-24T17:06:27.227Z,35.03
2022-08-24T17:08:54.084Z,37.05
2022-08-24T17:11:20.847Z,36.90
2022-08-24T17:13:50.316Z,35.25
2022-08-24T17:16:17.953Z,37.25
2022-08-24T17:18:45.286Z,38.60
2022-08-24T17:21:12.133Z,37.13
2022-08-24T17:23:41.605Z,39.10
2022-08-24T17:26:20.593Z,37.88
2022-08-24T17:28:51.498Z,36.60
2022-08-24T17:31:18.282Z,35.65
2022-08-24T17:33:45.413Z,30.40
2022-08-24T17:36:15.430Z,29.90
2022-08-24T17:38:52.915Z,29.75
2022-08-24T17:41:22.952Z,30.50
2022-08-24T17:43:49.759Z,30.13
2022-08-24T17:46:18.478Z,29.30
2022-08-24T17:48:46.577Z,30.45
2022-08-24T17:51:14.041Z,29.23
2022-08-24T17:53:40.853Z,29.00
2022-08-24T17:56:08.091Z,28.13
2022-08-24T17:58:58.188Z,28.73
2022-08-24T18:01:25.362Z,28.58
2022-08-24T18:03:52.426Z,28.45
2022-08-24T18:06:20.852Z,28.38
2022-08-24T18:08:48.242Z,28.15
2022-08-24T18:11:15.277Z,28.48
2022-08-24T18:13:42.458Z,24.00
2022-08-24T18:16:21.129Z,24.30
2022-08-24T18:18:50.313Z,24.38
2022-08-24T18:21:17.337Z,24.48
2022-08-24T18:23:44.036Z,24.08
2022-08-24T18:26:11.295Z,24.60
2022-08-24T18:28:38.163Z,23.40
2022-08-24T18:31:10.281Z,23.23
2022-08-24T18:33:37.276Z,26.48
2022-08-24T18:36:04.466Z,23.50
2022-08-24T18:38:31.227Z,22.58
2022-08-24T18:41:01.107Z,22.70
2022-08-24T18:43:28.559Z,22.90
2022-08-24T18:45:55.730Z,22.67
2022-08-24T18:48:23.088Z,22.48
2022-08-24T18:50:50.902Z,23.45
2022-08-24T18:53:17.906Z,22.10
2022-08-24T18:55:47.056Z,23.02
2022-08-24T18:58:14.372Z,22.55
2022-08-24T19:00:41.504Z,22.75
2022-08-24T19:03:10.755Z,22.85
2022-08-24T19:05:39.324Z,25.70
2022-08-24T19:08:07.312Z,22.75
2022-08-24T19:10:36.662Z,23.30
2022-08-24T19:13:08.632Z,23.27
2022-08-24T19:15:39.239Z,23.65
2022-08-24T19:18:09.479Z,23.33
2022-08-24T19:20:36.263Z,23.42
2022-08-24T19:23:12.183Z,22.90
2022-08-24T19:25:42.600Z,23.15
2022-08-24T19:28:09.458Z,23.02
2022-08-24T19:30:37.296Z,22.85
2022-08-24T19:33:11.730Z,23.00
2022-08-24T19:35:41.038Z,22.50
2022-08-24T19:38:08.133Z,22.38
2022-08-24T19:40:34.951Z,23.08
2022-08-24T19:43:02.932Z,22.35
2022-08-24T19:45:49.477Z,22.38
2022-08-24T19:48:16.900Z,23.10
2022-08-24T19:50:43.816Z,22.60
2022-08-24T19:53:10.872Z,22.85
2022-08-24T19:55:37.886Z,23.80
2022-08-24T19:58:27.118Z,22.85
2022-08-24T20:01:08.353Z,22.88
2022-08-24T20:03:35.119Z,23.35
2022-08-24T20:06:02.309Z,23.10
2022-08-24T20:08:29.116Z,23.35
2022-08-24T20:10:58.885Z,23.27
2022-08-24T20:13:26.476Z,23.48
2022-08-24T20:15:54.904Z,23.30
2022-08-24T20:18:28.621Z,23.33
2022-08-24T20:20:55.319Z,23.15
2022-08-24T20:23:22.124Z,23.05
2022-08-24T20:25:52.375Z,23.35
2022-08-24T20:28:29.321Z,23.05
2022-08-24T20:30:56.909Z,23.25
2022-08-24T20:33:24.736Z,22.85
2022-08-24T20:35:51.762Z,23.17
2022-08-24T20:38:20.376Z,23.25
2022-08-24T20:40:48.865Z,23.23
2022-08-24T20:43:15.740Z,23.27
2022-08-24T20:45:42.416Z,23.10
2022-08-24T20:48:12.431Z,23.30
2022-08-24T20:50:43.232Z,23.88
2022-08-24T20:53:11.746Z,24.05
2022-08-24T20:55:41.885Z,24.10
2022-08-24T20:58:12.097Z,25.25
2022-08-24T21:00:40.856Z,23.88
2022-08-24T21:03:07.733Z,24.73
2022-08-24T21:05:34.436Z,24.27
2022-08-24T21:08:01.190Z,24.33
2022-08-24T21:10:27.930Z,24.38
2022-08-24T21:12:55.352Z,23.90
2022-08-24T21:15:23.133Z,24.77
2022-08-24T21:17:50.240Z,24.58
2022-08-24T21:20:19.121Z,24.17
2022-08-24T21:22:46.177Z,24.92
2022-08-24T21:25:14.453Z,24.67
2022-08-24T21:27:43.957Z,25.08
2022-08-24T21:30:13.685Z,24.45
2022-08-24T21:32:58.841Z,24.00
2022-08-24T21:35:25.634Z,24.67
2022-08-24T21:37:53.110Z,25.25
2022-08-24T21:40:21.747Z,25.55
2022-08-24T21:42:48.905Z,24.85
2022-08-24T21:45:16.301Z,24.85
2022-08-24T21:47:43.326Z,25.13
2022-08-24T21:50:11.089Z,24.52
2022-08-24T21:52:38.184Z,25.58
2022-08-24T21:55:10.553Z,25.42
2022-08-24T21:57:39.779Z,24.27
2022-08-24T22:00:14.064Z,24.75
2022-08-24T22:02:41.712Z,24.70
2022-08-24T22:05:09.017Z,24.52
2022-08-24T22:07:36.580Z,24.33
2022-08-24T22:10:04.592Z,23.95
2022-08-24T22:12:31.338Z,24.30
2022-08-24T22:14:58.034Z,24.15
2022-08-24T22:17:24.808Z,24.35
2022-08-24T22:19:51.566Z,25.58
2022-08-24T22:22:18.331Z,24.75
2022-08-24T22:24:45.060Z,25.58
2022-08-24T22:27:11.816Z,24.15
2022-08-24T22:29:38.562Z,24.55
2022-08-24T22:32:05.488Z,25.00
2022-08-24T22:34:32.376Z,24.48
2022-08-24T22:37:00.914Z,25.45
2022-08-24T22:39:27.873Z,25.10
2022-08-24T22:41:54.957Z,25.38
2022-08-24T22:44:21.887Z,25.13
2022-08-24T22:46:54.532Z,25.05
2022-08-24T22:49:23.877Z,24.85
2022-08-24T22:51:51.082Z,24.60
2022-08-24T22:54:18.048Z,26.20
2022-08-24T22:56:47.653Z,24.73
2022-08-24T22:59:17.559Z,25.63
2022-08-24T23:01:46.253Z,24.05
2022-08-24T23:04:17.754Z,24.70
2022-08-24T23:06:44.562Z,24.50
2022-08-24T23:09:11.554Z,24.05
2022-08-24T23:11:38.803Z,24.20
2022-08-24T23:14:06.884Z,23.05
2022-08-24T23:16:36.891Z,24.05
2022-08-24T23:19:23.139Z,23.30
2022-08-24T23:21:50.058Z,23.77
2022-08-24T23:24:16.747Z,24.65
2022-08-24T23:26:44.219Z,24.02
2022-08-24T23:29:13.019Z,23.67
2022-08-24T23:31:41.563Z,24.40
2022-08-24T23:34:08.478Z,23.30
2022-08-24T23:36:36.165Z,23.60
2022-08-24T23:39:04.965Z,23.73
2022-08-24T23:41:34.523Z,24.02
2022-08-24T23:44:04.575Z,24.02
2022-08-24T23:46:31.708Z,24.00
2022-08-24T23:49:02.825Z,24.10
2022-08-24T23:51:31.093Z,24.15
2022-08-24T23:53:58.463Z,24.60
2022-08-24T23:56:31.857Z,23.73
2022-08-24T23:59:00.713Z,24.17
